createdAt,value
2023-03-17T00:15:40.422Z,92.94
2023-03-17T00:45:40.449Z,93.2
2023-03-17T01:15:40.442Z,94.03
2023-03-17T01:45:40.460Z,93.6
2023-03-17T02:15:40.469Z,93.02
2023-03-17T02:45:40.595Z,94.13
2023-03-17T03:15:40.503Z,93.86
2023-03-17T03:45:40.439Z,93.7
2023-03-17T04:15:40.435Z,93.48
2023-03-17T04:45:40.500Z,93.11
2023-03-17T05:15:40.439Z,93.32
2023-03-17T05:45:40.547Z,92.41
2023-03-17T06:15:40.516Z,92.74
2023-03-17T06:45:40.469Z,93.54
2023-03-17T07:15:40.465Z,94.44
2023-03-17T07:45:40.539Z,95.92
2023-03-17T08:15:40.483Z,97.4
2023-03-17T08:45:40.528Z,97.79
2023-03-17T09:15:40.590Z,97.68
2023-03-17T09:45:42.979Z,96.52
2023-03-17T10:15:40.496Z,96.79
2023-03-17T10:45:42.173Z,95.12
2023-03-17T11:15:40.513Z,92.74
2023-03-17T11:45:40.577Z,88.48
2023-03-17T12:15:40.538Z,85.28
2023-03-17T12:45:40.520Z,79.13
2023-03-17T13:15:40.713Z,77.44
2023-03-17T13:45:40.545Z,71.79
2023-03-17T14:15:40.548Z,68.05
2023-03-17T14:45:40.600Z,67.25
2023-03-17T15:15:40.569Z,67.24
2023-03-17T15:45:40.566Z,66.12
2023-03-17T16:15:40.656Z,66.33
2023-03-17T16:45:40.564Z,66.56
2023-03-17T17:15:40.583Z,66.72
2023-03-17T17:45:40.580Z,66.23
2023-03-17T18:15:40.595Z,66.53
2023-03-17T18:45:40.634Z,66.86
2023-03-17T19:15:40.589Z,66.87
2023-03-17T19:45:40.591Z,66.93
2023-03-17T20:15:40.635Z,67
2023-03-17T20:45:40.612Z,67.28
2023-03-17T21:15:40.611Z,67.33
2023-03-17T21:45:40.688Z,67.39
2023-03-17T22:15:40.617Z,67.54
2023-03-17T22:45:40.657Z,67.64
2023-03-17T23:15:40.638Z,67.71
2023-03-17T23:45:40.653Z,68.15
